Time;durP1;ratioP1;P1;durP2;ratioP2;P2;SDS_P1;SDS_P2;PMS_P1;PMS_P2;Temp;Humidity;BMP_temperature;BMP_pressure;BME280_temperature;BME280_humidity;BME280_pressure;Samples;Min_cycle;Max_cycle;Signal;HPM_P1;HPM_P2
2021/06/08 00:00:38;;;;;;;32.50;21.95;;;;;;;;;;5076571;28;20567;-45
2021/06/08 00:03:06;;;;;;;18.13;10.98;;;;;;;;;;5076449;28;20029;-45
2021/06/08 00:05:35;;;;;;;8.63;6.78;;;;;;;;;;5076317;28;20041;-45
2021/06/08 00:08:01;;;;;;;11.00;5.35;;;;;;;;;;5076477;28;20017;-44
2021/06/08 00:10:27;;;;;;;17.77;11.05;;;;;;;;;;5076366;28;20024;-46
2021/06/08 00:12:56;;;;;;;19.63;10.60;;;;;;;;;;5076248;28;20056;-46
2021/06/08 00:15:22;;;;;;;24.98;14.25;;;;;;;;;;5076191;28;20065;-44
2021/06/08 00:17:48;;;;;;;18.17;10.52;;;;;;;;;;5076403;28;20017;-45
2021/06/08 00:20:14;;;;;;;18.45;11.38;;;;;;;;;;5076395;28;20055;-44
2021/06/08 00:22:40;;;;;;;14.43;7.03;;;;;;;;;;5076096;28;20086;-44
2021/06/08 00:25:08;;;;;;;18.08;10.73;;;;;;;;;;5075005;28;20038;-44
2021/06/08 00:27:35;;;;;;;19.40;12.00;;;;;;;;;;5075974;28;20030;-43
2021/06/08 00:30:01;;;;;;;52.22;30.02;;;;;;;;;;5075980;28;20024;-43
2021/06/08 00:32:27;;;;;;;14.15;9.75;;;;;;;;;;5075918;28;20060;-43
2021/06/08 00:34:53;;;;;;;33.50;22.38;;;;;;;;;;5075787;28;20483;-44
2021/06/08 00:37:22;;;;;;;10.60;6.90;;;;;;;;;;5075961;28;20443;-43
2021/06/08 00:39:48;;;;;;;30.88;19.77;;;;;;;;;;5075733;28;20478;-44
2021/06/08 00:42:14;;;;;;;44.17;24.20;;;;;;;;;;5075812;28;20017;-44
2021/06/08 00:44:40;;;;;;;74.13;45.38;;;;;;;;;;5075548;28;20480;-44
2021/06/08 00:47:09;;;;;;;53.58;41.58;;;;;;;;;;5075309;28;20027;-43
2021/06/08 00:49:35;;;;;;;40.38;32.92;;;;;;;;;;5075630;28;20041;-43
2021/06/08 00:52:02;;;;;;;73.55;55.35;;;;;;;;;;5075663;28;20112;-43
2021/06/08 00:54:32;;;;;;;37.53;26.88;;;;;;;;;;5075426;28;20071;-43
2021/06/08 00:56:59;;;;;;;25.80;17.05;;;;;;;;;;5075667;28;20028;-43
2021/06/08 00:59:25;;;;;;;32.60;21.27;;;;;;;;;;5075452;28;20525;-42
2021/06/08 01:01:51;;;;;;;19.38;11.98;;;;;;;;;;5075518;28;20066;-45
2021/06/08 01:04:17;;;;;;;16.17;7.40;;;;;;;;;;5074001;28;20027;-42
2021/06/08 01:06:47;;;;;;;13.32;8.23;;;;;;;;;;5075419;28;20104;-44
2021/06/08 01:09:14;;;;;;;22.70;12.93;;;;;;;;;;5075219;28;20051;-44
2021/06/08 01:11:40;;;;;;;21.00;12.55;;;;;;;;;;5075301;28;20032;-45
2021/06/08 01:14:06;;;;;;;15.60;10.18;;;;;;;;;;5074837;28;20400;-44
2021/06/08 01:16:33;;;;;;;20.63;12.73;;;;;;;;;;5075128;28;20021;-44
2021/06/08 01:18:59;;;;;;;29.23;19.00;;;;;;;;;;5075130;28;20070;-44
2021/06/08 01:21:27;;;;;;;34.58;25.77;;;;;;;;;;5075068;28;20017;-43
2021/06/08 01:23:53;;;;;;;36.33;24.60;;;;;;;;;;5074960;28;20157;-44
2021/06/08 01:26:22;;;;;;;29.23;21.15;;;;;;;;;;5075071;28;20084;-44
2021/06/08 01:28:51;;;;;;;26.25;20.65;;;;;;;;;;5074793;28;20029;-44
2021/06/08 01:31:19;;;;;;;25.02;15.20;;;;;;;;;;5074988;28;20376;-45
2021/06/08 01:33:46;;;;;;;26.23;18.77;;;;;;;;;;5074661;28;20020;-44
2021/06/08 01:36:17;;;;;;;25.85;18.35;;;;;;;;;;5074726;28;20028;-45
2021/06/08 01:38:43;;;;;;;26.27;17.70;;;;;;;;;;5074767;28;20016;-43
2021/06/08 01:41:12;;;;;;;26.35;19.83;;;;;;;;;;5075006;28;20111;-44
2021/06/08 01:43:40;;;;;;;45.50;31.75;;;;;;;;;;5074495;28;20422;-44
2021/06/08 01:46:06;;;;;;;31.85;23.48;;;;;;;;;;5074511;28;20025;-45
2021/06/08 01:48:32;;;;;;;24.98;19.88;;;;;;;;;;5074613;28;20027;-45
2021/06/08 01:51:01;;;;;;;33.30;22.75;;;;;;;;;;5074429;28;20046;-45
2021/06/08 01:53:30;;;;;;;21.02;13.63;;;;;;;;;;5074339;28;20032;-45
2021/06/08 01:56:01;;;;;;;12.63;8.75;;;;;;;;;;5074441;28;20031;-45
2021/06/08 01:58:37;;;;;;;17.70;9.93;;;;;;;;;;5073464;28;20070;-44
2021/06/08 02:01:10;;;;;;;21.55;13.25;;;;;;;;;;5074304;28;20549;-44
2021/06/08 02:03:41;;;;;;;17.27;12.32;;;;;;;;;;5074238;28;20020;-44
2021/06/08 02:06:12;;;;;;;31.37;20.17;;;;;;;;;;5074174;28;20439;-44
2021/06/08 02:08:38;;;;;;;14.95;11.07;;;;;;;;;;5074137;28;20056;-44
2021/06/08 02:11:10;;;;;;;28.77;17.38;;;;;;;;;;5074194;28;20028;-44
2021/06/08 02:13:45;;;;;;;30.15;14.82;;;;;;;;;;5073641;28;20040;-43
2021/06/08 02:16:14;;;;;;;15.95;10.00;;;;;;;;;;5074004;28;20035;-43
2021/06/08 02:18:41;;;;;;;14.73;9.70;;;;;;;;;;5074108;28;20020;-45
2021/06/08 02:21:08;;;;;;;16.70;7.88;;;;;;;;;;5074032;28;20020;-44
2021/06/08 02:23:35;;;;;;;12.45;7.57;;;;;;;;;;5074161;28;20414;-43
2021/06/08 02:26:02;;;;;;;26.65;17.70;;;;;;;;;;5073786;28;20027;-43
2021/06/08 02:28:30;;;;;;;71.30;60.85;;;;;;;;;;5074014;28;20039;-44
2021/06/08 02:30:58;;;;;;;52.53;45.30;;;;;;;;;;5073720;28;20024;-45
2021/06/08 02:33:26;;;;;;;33.67;28.67;;;;;;;;;;5073668;28;20035;-43
2021/06/08 02:35:52;;;;;;;28.40;23.17;;;;;;;;;;5073660;28;20038;-43
2021/06/08 02:38:21;;;;;;;26.25;19.60;;;;;;;;;;5073835;28;20023;-43
2021/06/08 02:40:47;;;;;;;18.77;15.23;;;;;;;;;;5073779;28;20508;-43
2021/06/08 02:43:14;;;;;;;14.93;10.98;;;;;;;;;;5073475;28;20067;-43
2021/06/08 02:45:41;;;;;;;10.02;9.00;;;;;;;;;;5073558;28;20025;-44
2021/06/08 02:48:07;;;;;;;15.68;9.40;;;;;;;;;;5073703;28;20024;-43
2021/06/08 02:50:34;;;;;;;10.45;7.72;;;;;;;;;;5073798;28;20032;-43
2021/06/08 02:53:00;;;;;;;11.40;7.03;;;;;;;;;;5073617;28;20024;-44
2021/06/08 02:55:27;;;;;;;7.13;6.38;;;;;;;;;;5073284;28;20480;-43
2021/06/08 02:57:54;;;;;;;10.65;7.30;;;;;;;;;;5073587;28;20035;-43
2021/06/08 03:00:21;;;;;;;10.20;7.05;;;;;;;;;;5073462;28;20028;-43
2021/06/08 03:02:48;;;;;;;12.75;6.57;;;;;;;;;;5073271;28;20029;-43
2021/06/08 03:05:22;;;;;;;12.73;6.18;;;;;;;;;;5073589;28;20107;-44
2021/06/08 03:07:50;;;;;;;12.38;6.63;;;;;;;;;;5073357;28;20381;-43
2021/06/08 03:10:17;;;;;;;15.07;6.82;;;;;;;;;;5073236;28;20026;-43
2021/06/08 03:12:46;;;;;;;11.90;6.38;;;;;;;;;;5072967;28;20108;-43
2021/06/08 03:15:13;;;;;;;13.88;6.32;;;;;;;;;;5072983;28;20044;-43
2021/06/08 03:17:41;;;;;;;11.40;6.38;;;;;;;;;;5073421;28;20487;-43
2021/06/08 03:20:11;;;;;;;15.82;6.25;;;;;;;;;;5073368;28;20024;-43
2021/06/08 03:22:39;;;;;;;20.90;6.60;;;;;;;;;;5073188;28;20017;-43
2021/06/08 03:25:05;;;;;;;12.93;6.65;;;;;;;;;;5073150;28;20745;-43
2021/06/08 03:27:32;;;;;;;15.15;6.10;;;;;;;;;;5073227;28;20024;-44
2021/06/08 03:29:58;;;;;;;12.93;6.22;;;;;;;;;;5073115;28;20145;-44
2021/06/08 03:32:25;;;;;;;11.30;5.68;;;;;;;;;;5073121;28;20031;-44
2021/06/08 03:34:51;;;;;;;8.77;5.95;;;;;;;;;;5073187;28;20115;-45
2021/06/08 03:37:19;;;;;;;15.60;6.00;;;;;;;;;;5073151;28;20017;-45
2021/06/08 03:39:46;;;;;;;16.55;5.43;;;;;;;;;;5073009;28;20604;-45
2021/06/08 03:42:12;;;;;;;16.55;6.65;;;;;;;;;;5071735;28;20416;-45
2021/06/08 03:44:38;;;;;;;29.48;6.90;;;;;;;;;;5072708;28;20028;-45
2021/06/08 03:47:05;;;;;;;22.80;6.80;;;;;;;;;;5073198;28;20531;-45
2021/06/08 03:49:32;;;;;;;16.17;6.32;;;;;;;;;;5072919;28;20028;-45
2021/06/08 03:51:58;;;;;;;20.65;6.68;;;;;;;;;;5073112;28;20421;-44
2021/06/08 03:54:25;;;;;;;14.75;6.50;;;;;;;;;;5072889;28;20033;-45
2021/06/08 03:56:52;;;;;;;15.35;6.30;;;;;;;;;;5072871;28;20138;-44
2021/06/08 03:59:20;;;;;;;22.55;6.70;;;;;;;;;;5072651;28;20392;-44
2021/06/08 04:01:48;;;;;;;12.68;6.35;;;;;;;;;;5072757;28;20024;-44
2021/06/08 04:04:14;;;;;;;15.27;5.95;;;;;;;;;;5072826;28;20448;-44
2021/06/08 04:06:40;;;;;;;21.13;7.15;;;;;;;;;;5072733;28;20036;-44
2021/06/08 04:09:08;;;;;;;11.98;6.82;;;;;;;;;;5073014;28;20081;-45
2021/06/08 04:11:34;;;;;;;15.43;8.35;;;;;;;;;;5072786;28;20404;-44
2021/06/08 04:14:01;;;;;;;17.70;6.65;;;;;;;;;;5072169;28;20049;-43
2021/06/08 04:16:27;;;;;;;10.88;6.60;;;;;;;;;;5072546;28;20541;-44
2021/06/08 04:18:54;;;;;;;12.57;5.95;;;;;;;;;;5072745;28;20090;-43
2021/06/08 04:21:24;;;;;;;9.55;5.88;;;;;;;;;;5074178;28;20020;-44
2021/06/08 04:23:59;;;;;;;13.65;7.28;;;;;;;;;;5076503;28;20032;-44
2021/06/08 04:26:25;;;;;;;23.33;12.43;;;;;;;;;;5076254;28;20459;-47
2021/06/08 04:28:52;;;;;;;15.93;6.72;;;;;;;;;;5075057;28;20435;-45
2021/06/08 04:31:18;;;;;;;16.55;7.70;;;;;;;;;;5076230;28;20055;-48
2021/06/08 04:33:45;;;;;;;32.28;17.23;;;;;;;;;;5075998;28;20070;-45
2021/06/08 04:36:12;;;;;;;18.75;9.35;;;;;;;;;;5076022;28;20086;-45
2021/06/08 04:38:38;;;;;;;26.02;17.55;;;;;;;;;;5074682;28;20556;-45
2021/06/08 04:41:05;;;;;;;25.90;11.70;;;;;;;;;;5076051;28;20376;-45
2021/06/08 04:43:31;;;;;;;8.73;6.28;;;;;;;;;;5075718;28;20035;-44
2021/06/08 04:46:00;;;;;;;21.00;10.48;;;;;;;;;;5075760;28;20028;-44
2021/06/08 04:48:26;;;;;;;18.30;9.70;;;;;;;;;;5074589;28;20491;-45
2021/06/08 04:50:53;;;;;;;13.93;8.27;;;;;;;;;;5075979;28;20029;-43
2021/06/08 04:53:20;;;;;;;11.13;7.60;;;;;;;;;;5075819;28;20020;-43
2021/06/08 04:55:46;;;;;;;14.45;8.88;;;;;;;;;;5075786;28;20032;-45
2021/06/08 04:58:12;;;;;;;19.05;9.20;;;;;;;;;;5075546;28;20097;-46
2021/06/08 05:00:40;;;;;;;15.18;9.05;;;;;;;;;;5075844;28;20149;-45
2021/06/08 05:03:14;;;;;;;25.75;16.90;;;;;;;;;;5075404;28;20464;-45
2021/06/08 05:05:42;;;;;;;10.95;7.45;;;;;;;;;;5074284;28;20192;-45
2021/06/08 05:08:22;;;;;;;11.73;5.85;;;;;;;;;;5075582;28;20380;-44
2021/06/08 05:11:07;;;;;;;12.75;6.07;;;;;;;;;;5075375;28;20029;-45
2021/06/08 05:13:35;;;;;;;12.25;7.75;;;;;;;;;;5074899;28;20069;-45
2021/06/08 05:16:01;;;;;;;13.88;6.93;;;;;;;;;;5075145;28;20063;-45
2021/06/08 05:18:28;;;;;;;22.05;7.75;;;;;;;;;;5075295;28;20078;-42
2021/06/08 05:20:54;;;;;;;13.45;6.93;;;;;;;;;;5075063;28;20032;-45
2021/06/08 05:23:21;;;;;;;20.40;7.72;;;;;;;;;;5074973;28;20024;-45
2021/06/08 05:25:50;;;;;;;10.65;5.93;;;;;;;;;;5074986;28;20388;-45
2021/06/08 05:28:17;;;;;;;10.77;5.43;;;;;;;;;;5074941;28;20111;-45
2021/06/08 05:30:44;;;;;;;6.85;5.25;;;;;;;;;;5074939;28;20421;-42
2021/06/08 05:33:11;;;;;;;9.48;5.72;;;;;;;;;;5074833;28;20017;-43
2021/06/08 05:35:37;;;;;;;9.45;5.90;;;;;;;;;;5075027;28;20472;-43
2021/06/08 05:38:07;;;;;;;15.52;5.18;;;;;;;;;;5074910;28;20462;-43
2021/06/08 05:40:35;;;;;;;10.90;6.22;;;;;;;;;;5074792;28;20092;-44
2021/06/08 05:43:03;;;;;;;17.15;5.70;;;;;;;;;;5074514;28;20024;-44
2021/06/08 05:45:32;;;;;;;16.48;5.80;;;;;;;;;;5074536;28;20099;-44
2021/06/08 05:47:59;;;;;;;11.10;4.80;;;;;;;;;;5074522;28;20537;-45
2021/06/08 05:50:25;;;;;;;14.65;4.75;;;;;;;;;;5074595;28;20028;-43
2021/06/08 05:52:54;;;;;;;7.47;5.15;;;;;;;;;;5074297;28;20103;-44
2021/06/08 05:55:25;;;;;;;14.23;5.20;;;;;;;;;;5074500;28;20047;-44
2021/06/08 05:57:52;;;;;;;20.42;5.35;;;;;;;;;;5074299;28;20518;-44
2021/06/08 06:00:18;;;;;;;14.20;5.30;;;;;;;;;;5074230;28;20032;-43
2021/06/08 06:02:45;;;;;;;11.13;4.65;;;;;;;;;;5074285;28;20074;-44
2021/06/08 06:05:11;;;;;;;14.35;5.28;;;;;;;;;;5074341;28;20096;-44
2021/06/08 06:07:38;;;;;;;11.38;5.15;;;;;;;;;;5074085;28;20031;-45
2021/06/08 06:10:05;;;;;;;12.05;4.78;;;;;;;;;;5074590;28;20111;-44
2021/06/08 06:12:31;;;;;;;14.30;4.95;;;;;;;;;;5073757;28;20021;-43
2021/06/08 06:15:03;;;;;;;18.55;5.75;;;;;;;;;;5073879;28;20481;-45
2021/06/08 06:17:35;;;;;;;26.25;16.55;;;;;;;;;;5073965;28;20033;-46
2021/06/08 06:20:01;;;;;;;14.02;9.05;;;;;;;;;;5073964;28;20062;-44
2021/06/08 06:22:27;;;;;;;14.27;5.75;;;;;;;;;;5073906;28;20025;-44
2021/06/08 06:24:53;;;;;;;8.45;5.22;;;;;;;;;;5073892;28;20518;-47
2021/06/08 06:27:20;;;;;;;7.95;4.47;;;;;;;;;;5073858;28;20056;-46
2021/06/08 06:29:47;;;;;;;9.48;4.68;;;;;;;;;;5073699;28;20035;-45
2021/06/08 06:32:13;;;;;;;21.13;6.18;;;;;;;;;;5073914;28;20373;-42
2021/06/08 06:34:39;;;;;;;12.55;5.50;;;;;;;;;;5073664;28;20472;-43
2021/06/08 06:37:07;;;;;;;11.38;5.35;;;;;;;;;;5072529;28;20032;-45
2021/06/08 06:39:35;;;;;;;9.60;5.78;;;;;;;;;;5073863;28;20434;-42
2021/06/08 06:42:03;;;;;;;6.65;5.18;;;;;;;;;;5073719;28;20035;-46
2021/06/08 06:44:32;;;;;;;19.70;13.02;;;;;;;;;;5073043;28;20113;-46
2021/06/08 06:46:58;;;;;;;12.40;7.97;;;;;;;;;;5073391;28;20024;-44
2021/06/08 06:49:24;;;;;;;13.70;6.72;;;;;;;;;;5073554;28;20059;-45
2021/06/08 06:51:51;;;;;;;13.07;8.85;;;;;;;;;;5073722;28;20028;-43
2021/06/08 06:54:18;;;;;;;13.38;6.53;;;;;;;;;;5073382;28;20028;-45
2021/06/08 06:56:45;;;;;;;14.80;6.25;;;;;;;;;;5073362;28;20028;-45
2021/06/08 06:59:11;;;;;;;9.52;6.65;;;;;;;;;;5073773;28;20107;-45
2021/06/08 07:01:37;;;;;;;9.70;5.88;;;;;;;;;;5073393;28;20170;-45
2021/06/08 07:04:04;;;;;;;10.35;5.65;;;;;;;;;;5072019;28;20031;-43
2021/06/08 07:06:31;;;;;;;12.93;5.15;;;;;;;;;;5073454;28;20103;-43
2021/06/08 07:08:59;;;;;;;9.10;4.88;;;;;;;;;;5073324;28;20013;-46
2021/06/08 07:11:25;;;;;;;7.75;5.93;;;;;;;;;;5073382;28;20094;-45
2021/06/08 07:13:52;;;;;;;10.77;4.45;;;;;;;;;;5072799;28;20048;-44
2021/06/08 07:16:20;;;;;;;12.35;7.72;;;;;;;;;;5073040;28;20071;-44
2021/06/08 07:18:47;;;;;;;12.95;4.57;;;;;;;;;;5073147;28;20025;-46
2021/06/08 07:21:13;;;;;;;27.30;21.23;;;;;;;;;;5072982;28;20461;-44
2021/06/08 07:23:40;;;;;;;13.55;8.32;;;;;;;;;;5073041;28;20446;-44
2021/06/08 07:26:06;;;;;;;6.82;4.22;;;;;;;;;;5072998;28;20031;-43
2021/06/08 07:28:32;;;;;;;8.68;5.05;;;;;;;;;;5073111;28;20024;-45
2021/06/08 07:31:03;;;;;;;8.55;5.47;;;;;;;;;;5072958;28;20120;-44
2021/06/08 07:33:29;;;;;;;27.60;7.10;;;;;;;;;;5073074;28;20095;-44
2021/06/08 07:35:58;;;;;;;15.88;8.13;;;;;;;;;;5072773;28;20032;-45
2021/06/08 07:38:30;;;;;;;12.52;7.13;;;;;;;;;;5072920;28;20020;-45
2021/06/08 07:41:01;;;;;;;9.35;6.22;;;;;;;;;;5072941;28;20024;-45
2021/06/08 07:43:30;;;;;;;42.95;16.33;;;;;;;;;;5072943;28;20400;-44
2021/06/08 07:46:00;;;;;;;16.98;5.53;;;;;;;;;;5072845;28;20025;-45
2021/06/08 07:48:27;;;;;;;10.82;3.92;;;;;;;;;;5072712;28;20048;-44
2021/06/08 07:50:55;;;;;;;5.10;3.28;;;;;;;;;;5073094;28;20724;-44
2021/06/08 07:53:22;;;;;;;12.45;4.18;;;;;;;;;;5072984;28;20381;-44
2021/06/08 07:55:49;;;;;;;4.30;3.10;;;;;;;;;;5073660;28;20517;-44
2021/06/08 07:58:22;;;;;;;11.60;4.95;;;;;;;;;;5076741;28;20039;-44
2021/06/08 08:00:48;;;;;;;15.90;8.45;;;;;;;;;;5076467;28;20099;-45
2021/06/08 08:03:26;;;;;;;12.65;5.65;;;;;;;;;;5076858;28;20111;-44
2021/06/08 08:05:52;;;;;;;23.73;10.82;;;;;;;;;;5076514;28;20461;-45
2021/06/08 08:08:20;;;;;;;11.57;5.72;;;;;;;;;;5076918;28;20033;-43
2021/06/08 08:10:47;;;;;;;13.80;3.10;;;;;;;;;;5076877;28;20020;-44
2021/06/08 08:13:15;;;;;;;14.88;2.70;;;;;;;;;;5076392;28;20125;-43
2021/06/08 08:15:44;;;;;;;5.30;2.58;;;;;;;;;;5076247;28;20097;-43
2021/06/08 08:18:10;;;;;;;12.07;4.03;;;;;;;;;;5076548;28;20032;-45
2021/06/08 08:20:45;;;;;;;12.82;4.03;;;;;;;;;;5076174;28;20119;-44
2021/06/08 08:23:11;;;;;;;12.20;4.82;;;;;;;;;;5076280;28;20056;-44
2021/06/08 08:25:38;;;;;;;5.55;3.03;;;;;;;;;;5076298;28;20440;-43
2021/06/08 08:28:05;;;;;;;5.22;2.47;;;;;;;;;;5076060;28;20030;-43
2021/06/08 08:30:31;;;;;;;7.82;3.03;;;;;;;;;;5075926;28;20433;-44
2021/06/08 08:32:57;;;;;;;6.63;4.00;;;;;;;;;;5076136;28;20065;-43
2021/06/08 08:35:25;;;;;;;5.50;3.42;;;;;;;;;;5076351;28;20067;-44
2021/06/08 08:37:51;;;;;;;7.43;2.83;;;;;;;;;;5076225;28;20025;-44
2021/06/08 08:40:18;;;;;;;6.38;3.45;;;;;;;;;;5076216;28;20028;-44
2021/06/08 08:42:45;;;;;;;4.60;2.70;;;;;;;;;;5075970;28;20036;-43
2021/06/08 08:45:12;;;;;;;8.98;3.03;;;;;;;;;;5075919;28;20033;-45
2021/06/08 08:47:39;;;;;;;8.35;3.30;;;;;;;;;;5075952;28;20404;-43
2021/06/08 08:50:05;;;;;;;27.35;7.68;;;;;;;;;;5075981;28;20059;-45
2021/06/08 08:52:33;;;;;;;7.25;4.00;;;;;;;;;;5075832;28;20024;-43
2021/06/08 08:55:00;;;;;;;8.02;3.10;;;;;;;;;;5075976;28;20044;-46
2021/06/08 08:57:27;;;;;;;8.90;3.22;;;;;;;;;;5075776;28;20020;-44
2021/06/08 08:59:59;;;;;;;7.10;3.00;;;;;;;;;;5075605;28;20029;-45
2021/06/08 09:02:28;;;;;;;6.60;3.28;;;;;;;;;;5075542;28;20100;-44
2021/06/08 09:04:54;;;;;;;12.55;2.83;;;;;;;;;;5075667;28;20062;-43
2021/06/08 09:07:21;;;;;;;3.20;2.63;;;;;;;;;;5075238;28;20376;-43
2021/06/08 09:09:47;;;;;;;7.80;3.00;;;;;;;;;;5075590;28;20464;-43
2021/06/08 09:12:13;;;;;;;6.70;3.13;;;;;;;;;;5075358;28;20104;-43
2021/06/08 09:14:44;;;;;;;5.03;3.10;;;;;;;;;;5074990;28;20059;-43
2021/06/08 09:17:10;;;;;;;3.92;3.03;;;;;;;;;;5075382;28;20016;-44
2021/06/08 09:19:37;;;;;;;12.07;2.90;;;;;;;;;;5075185;28;20074;-44
2021/06/08 09:22:03;;;;;;;3.60;2.47;;;;;;;;;;5075256;28;20020;-43
2021/06/08 09:24:33;;;;;;;8.80;2.72;;;;;;;;;;5075328;28;20021;-43
2021/06/08 09:27:09;;;;;;;4.20;3.10;;;;;;;;;;5075069;28;20078;-43
2021/06/08 09:29:39;;;;;;;3.95;2.70;;;;;;;;;;5075158;28;20077;-43
2021/06/08 09:32:18;;;;;;;6.38;2.38;;;;;;;;;;5074902;28;20059;-43
2021/06/08 09:34:45;;;;;;;10.68;3.55;;;;;;;;;;5074933;28;20422;-43
2021/06/08 09:37:11;;;;;;;6.15;2.70;;;;;;;;;;5074864;28;20070;-43
2021/06/08 09:39:44;;;;;;;5.95;3.25;;;;;;;;;;5074883;28;20024;-43
2021/06/08 09:42:23;;;;;;;12.25;2.97;;;;;;;;;;5074891;28;20020;-43
2021/06/08 09:44:50;;;;;;;8.30;3.08;;;;;;;;;;5074767;28;20047;-44
2021/06/08 09:47:25;;;;;;;7.50;2.63;;;;;;;;;;5074636;28;20095;-45
2021/06/08 09:49:52;;;;;;;14.57;2.50;;;;;;;;;;5074581;28;20511;-44
2021/06/08 09:52:19;;;;;;;3.85;2.78;;;;;;;;;;5074683;28;20025;-44
2021/06/08 09:54:46;;;;;;;8.50;3.20;;;;;;;;;;5074776;28;20094;-44
2021/06/08 09:57:19;;;;;;;6.88;2.97;;;;;;;;;;5074640;28;20024;-44
2021/06/08 09:59:47;;;;;;;12.32;2.88;;;;;;;;;;5074810;28;20036;-44
2021/06/08 10:02:36;;;;;;;3.45;2.65;;;;;;;;;;5074484;28;20020;-43
2021/06/08 10:05:21;;;;;;;5.00;2.75;;;;;;;;;;5074214;28;20031;-44
2021/06/08 10:07:54;;;;;;;6.80;2.08;;;;;;;;;;5074235;28;20392;-43
2021/06/08 10:10:24;;;;;;;6.40;2.95;;;;;;;;;;5074157;28;20052;-44
2021/06/08 10:13:00;;;;;;;6.18;2.80;;;;;;;;;;5073948;28;20112;-43
2021/06/08 10:15:28;;;;;;;5.70;3.08;;;;;;;;;;5072921;28;20098;-43
2021/06/08 10:18:12;;;;;;;5.85;2.90;;;;;;;;;;5074032;28;20028;-44
2021/06/08 10:20:39;;;;;;;5.28;2.90;;;;;;;;;;5074044;28;20032;-44
2021/06/08 10:23:18;;;;;;;6.30;2.80;;;;;;;;;;5073585;28;20099;-44
2021/06/08 10:25:44;;;;;;;6.18;2.92;;;;;;;;;;5072962;28;20413;-44
2021/06/08 10:28:13;;;;;;;7.47;3.13;;;;;;;;;;5073441;28;20026;-47
2021/06/08 10:30:40;;;;;;;8.13;3.00;;;;;;;;;;5073331;28;20024;-47
2021/06/08 10:33:06;;;;;;;14.95;8.95;;;;;;;;;;5073207;28;20020;-46
2021/06/08 10:35:32;;;;;;;9.60;4.93;;;;;;;;;;5073166;28;20028;-46
2021/06/08 10:37:58;;;;;;;5.35;3.85;;;;;;;;;;5073081;28;20024;-46
2021/06/08 10:40:24;;;;;;;16.75;9.95;;;;;;;;;;5073124;28;20020;-48
2021/06/08 10:42:51;;;;;;;14.88;9.23;;;;;;;;;;5072915;28;20032;-50
2021/06/08 10:45:17;;;;;;;14.02;6.93;;;;;;;;;;5073228;28;20023;-46
2021/06/08 10:47:51;;;;;;;41.50;29.60;;;;;;;;;;5073020;28;20036;-46
2021/06/08 10:50:31;;;;;;;40.00;31.05;;;;;;;;;;5072949;28;20036;-45
2021/06/08 10:52:58;;;;;;;22.20;16.13;;;;;;;;;;5071441;28;20100;-44
2021/06/08 10:55:25;;;;;;;17.60;11.15;;;;;;;;;;5072744;28;20086;-48
2021/06/08 10:57:51;;;;;;;14.80;8.75;;;;;;;;;;5072948;28;20020;-45
2021/06/08 11:00:26;;;;;;;24.67;12.20;;;;;;;;;;5073383;28;20103;-46
2021/06/08 11:03:00;;;;;;;13.52;8.93;;;;;;;;;;5073481;28;20062;-47
2021/06/08 11:05:58;;;;;;;19.33;10.20;;;;;;;;;;5073289;28;20036;-46
2021/06/08 11:08:43;;;;;;;39.88;20.48;;;;;;;;;;5050872;28;20116;-46
2021/06/08 11:11:09;;;;;;;16.85;14.02;;;;;;;;;;5051037;28;20044;-46
2021/06/08 11:13:42;;;;;;;31.73;23.13;;;;;;;;;;5050834;28;20560;-46
2021/06/08 11:16:27;;;;;;;18.33;13.48;;;;;;;;;;5050881;28;20501;-48
2021/06/08 11:18:53;;;;;;;49.05;38.38;;;;;;;;;;5050998;28;20072;-48
2021/06/08 11:21:23;;;;;;;50.55;39.10;;;;;;;;;;5050890;28;20028;-45
2021/06/08 11:23:49;;;;;;;42.13;29.55;;;;;;;;;;5050903;28;20037;-45
2021/06/08 11:26:17;;;;;;;119.10;90.13;;;;;;;;;;5050913;28;20058;-45
2021/06/08 11:28:47;;;;;;;62.00;46.65;;;;;;;;;;5050942;28;20107;-45
2021/06/08 11:31:14;;;;;;;31.57;21.33;;;;;;;;;;5054076;28;20040;-45
2021/06/08 11:33:44;;;;;;;44.88;32.45;;;;;;;;;;5055020;28;20043;-45
2021/06/08 11:36:19;;;;;;;7.25;5.85;;;;;;;;;;5054881;28;20036;-47
2021/06/08 11:38:46;;;;;;;25.48;13.95;;;;;;;;;;5054985;28;20424;-45
2021/06/08 11:41:13;;;;;;;25.48;16.08;;;;;;;;;;5054947;28;20033;-45
2021/06/08 11:43:46;;;;;;;26.17;18.55;;;;;;;;;;5062071;28;20063;-45
2021/06/08 11:46:12;;;;;;;17.85;9.00;;;;;;;;;;5095059;28;20398;-45
2021/06/08 11:48:39;;;;;;;20.10;12.05;;;;;;;;;;5097137;28;20499;-46
2021/06/08 11:51:15;;;;;;;38.03;22.83;;;;;;;;;;5097013;28;20046;-45
2021/06/08 11:53:57;;;;;;;15.35;6.15;;;;;;;;;;5078125;28;20020;-45
2021/06/08 11:56:40;;;;;;;8.85;4.85;;;;;;;;;;5075974;28;20047;-45
2021/06/08 11:59:07;;;;;;;16.23;10.65;;;;;;;;;;5075368;28;20013;-46
2021/06/08 12:01:38;;;;;;;5.35;2.88;;;;;;;;;;5072160;28;20501;-45
2021/06/08 12:04:04;;;;;;;6.18;3.53;;;;;;;;;;5076119;28;20016;-44
2021/06/08 12:06:48;;;;;;;7.00;2.97;;;;;;;;;;5075999;28;20573;-44
2021/06/08 12:09:17;;;;;;;15.95;3.25;;;;;;;;;;5073714;28;20100;-44
2021/06/08 12:11:43;;;;;;;14.65;3.03;;;;;;;;;;5076041;28;20063;-45
2021/06/08 12:14:09;;;;;;;15.15;3.05;;;;;;;;;;5076540;28;20098;-45
2021/06/08 12:16:36;;;;;;;6.65;2.80;;;;;;;;;;5075757;28;20029;-45
2021/06/08 12:19:12;;;;;;;6.55;2.55;;;;;;;;;;5075917;28;20386;-45
2021/06/08 12:21:43;;;;;;;10.63;5.47;;;;;;;;;;5076204;28;20045;-44
2021/06/08 12:24:09;;;;;;;26.38;10.45;;;;;;;;;;5076055;28;20486;-45
2021/06/08 12:26:37;;;;;;;31.00;12.02;;;;;;;;;;5076058;28;20059;-45
2021/06/08 12:29:13;;;;;;;19.05;9.57;;;;;;;;;;5076026;28;20029;-47
2021/06/08 12:31:39;;;;;;;16.65;6.47;;;;;;;;;;5075899;28;20017;-43
2021/06/08 12:34:12;;;;;;;12.77;4.95;;;;;;;;;;5075752;28;20048;-44
2021/06/08 12:36:39;;;;;;;40.40;23.02;;;;;;;;;;5075862;28;20032;-45
2021/06/08 12:39:10;;;;;;;26.40;20.98;;;;;;;;;;5075793;28;20029;-45
2021/06/08 12:41:36;;;;;;;21.25;14.60;;;;;;;;;;5075086;28;20032;-45
2021/06/08 12:44:02;;;;;;;19.05;12.13;;;;;;;;;;5076077;28;20025;-44
2021/06/08 12:46:29;;;;;;;31.08;21.08;;;;;;;;;;5075592;28;20029;-45
2021/06/08 12:49:11;;;;;;;25.55;12.18;;;;;;;;;;5075625;28;20016;-44
2021/06/08 12:51:53;;;;;;;11.52;4.45;;;;;;;;;;5075859;28;20052;-44
2021/06/08 12:54:34;;;;;;;29.05;23.38;;;;;;;;;;5075341;28;20025;-44
2021/06/08 12:57:01;;;;;;;27.92;22.85;;;;;;;;;;5075441;28;20024;-44
2021/06/08 12:59:28;;;;;;;29.48;17.40;;;;;;;;;;5075608;28;20028;-46
2021/06/08 13:01:54;;;;;;;52.58;44.47;;;;;;;;;;5075582;28;20024;-47
2021/06/08 13:04:21;;;;;;;17.90;10.07;;;;;;;;;;5075594;28;20016;-47
2021/06/08 13:06:48;;;;;;;17.00;11.70;;;;;;;;;;5074070;28;20511;-47
2021/06/08 13:09:15;;;;;;;82.70;53.53;;;;;;;;;;5074591;28;20029;-44
2021/06/08 13:11:41;;;;;;;66.88;40.33;;;;;;;;;;5074530;28;20431;-44
2021/06/08 13:14:07;;;;;;;53.60;36.88;;;;;;;;;;5072018;28;20060;-46
2021/06/08 13:16:35;;;;;;;68.10;44.95;;;;;;;;;;5071479;28;20025;-46
2021/06/08 13:19:14;;;;;;;13.65;8.75;;;;;;;;;;5074919;28;20017;-44
2021/06/08 13:21:41;;;;;;;15.85;8.68;;;;;;;;;;5073943;28;20503;-45
2021/06/08 13:24:10;;;;;;;90.43;72.53;;;;;;;;;;5074637;28;20468;-44
2021/06/08 13:26:37;;;;;;;111.40;99.10;;;;;;;;;;5073464;28;20028;-47
2021/06/08 13:29:18;;;;;;;32.72;24.75;;;;;;;;;;5073698;28;20111;-44
2021/06/08 13:31:44;;;;;;;32.80;22.52;;;;;;;;;;5071107;28;20024;-47
2021/06/08 13:34:19;;;;;;;15.07;8.23;;;;;;;;;;5073312;28;20480;-46
2021/06/08 13:36:46;;;;;;;18.65;8.52;;;;;;;;;;5073320;28;20028;-45
2021/06/08 13:39:15;;;;;;;38.78;31.75;;;;;;;;;;5069925;28;20377;-49
2021/06/08 13:41:42;;;;;;;20.77;8.35;;;;;;;;;;5073324;28;20024;-45
2021/06/08 13:44:09;;;;;;;9.10;4.47;;;;;;;;;;5072978;28;20107;-46
2021/06/08 13:46:35;;;;;;;49.55;34.63;;;;;;;;;;5072853;28;20545;-45
2021/06/08 13:49:03;;;;;;;67.65;54.30;;;;;;;;;;5073004;28;20017;-45
2021/06/08 13:51:31;;;;;;;75.85;54.83;;;;;;;;;;5073057;28;20016;-46
2021/06/08 13:54:04;;;;;;;78.57;62.22;;;;;;;;;;5069102;28;20021;-45
2021/06/08 13:56:43;;;;;;;17.00;14.57;;;;;;;;;;5072914;28;20024;-46
2021/06/08 14:01:56;;;;;;;12.68;6.90;;;;;;;;;;5068037;28;20043;-46
2021/06/08 14:04:23;;;;;;;18.77;9.63;;;;;;;;;;5071868;28;20027;-45
2021/06/08 14:06:51;;;;;;;7.13;4.53;;;;;;;;;;5072895;28;20036;-43
2021/06/08 14:09:18;;;;;;;6.85;6.03;;;;;;;;;;5070350;28;20017;-44
2021/06/08 14:11:49;;;;;;;19.23;12.82;;;;;;;;;;5072735;28;20029;-46
2021/06/08 14:14:17;;;;;;;18.08;8.63;;;;;;;;;;5072134;28;20060;-45
2021/06/08 14:16:46;;;;;;;49.92;33.65;;;;;;;;;;5072606;28;20063;-45
2021/06/08 14:19:16;;;;;;;38.17;27.88;;;;;;;;;;5072381;28;20020;-46
2021/06/08 14:21:42;;;;;;;37.15;18.98;;;;;;;;;;5073307;28;20075;-44
2021/06/08 14:24:08;;;;;;;22.38;14.75;;;;;;;;;;5071673;28;20051;-44
2021/06/08 14:26:35;;;;;;;43.40;28.45;;;;;;;;;;5072884;28;20036;-44
2021/06/08 14:29:03;;;;;;;71.55;49.80;;;;;;;;;;5072671;28;20049;-45
2021/06/08 14:31:29;;;;;;;77.00;57.38;;;;;;;;;;5072235;28;20028;-44
2021/06/08 14:33:56;;;;;;;51.17;35.72;;;;;;;;;;5072355;28;20447;-45
2021/06/08 14:36:22;;;;;;;23.65;15.52;;;;;;;;;;5072186;28;20064;-45
2021/06/08 14:38:48;;;;;;;31.17;25.40;;;;;;;;;;5072179;28;20016;-45